sensor_id;sensor_type;location;lat;lon;timestamp;P1;durP1;ratioP1;P2;durP2;ratioP2
79261;SDS011;68699;48.220;16.358;2023-06-14T00:00:59;4.23;;;3.83;;
79261;SDS011;68699;48.220;16.358;2023-06-14T00:03:28;4.17;;;3.80;;
79261;SDS011;68699;48.220;16.358;2023-06-14T00:05:54;4.20;;;3.67;;
79261;SDS011;68699;48.220;16.358;2023-06-14T00:08:20;4.70;;;3.90;;
79261;SDS011;68699;48.220;16.358;2023-06-14T00:10:48;4.10;;;3.70;;
79261;SDS011;68699;48.220;16.358;2023-06-14T00:13:14;4.30;;;4.00;;
79261;SDS011;68699;48.220;16.358;2023-06-14T00:15:40;4.47;;;4.07;;
79261;SDS011;68699;48.220;16.358;2023-06-14T00:18:07;4.33;;;3.77;;
79261;SDS011;68699;48.220;16.358;2023-06-14T00:20:36;4.10;;;3.73;;
79261;SDS011;68699;48.220;16.358;2023-06-14T00:23:02;4.40;;;4.00;;
79261;SDS011;68699;48.220;16.358;2023-06-14T00:25:28;4.33;;;3.93;;
79261;SDS011;68699;48.220;16.358;2023-06-14T00:27:55;3.93;;;3.63;;
79261;SDS011;68699;48.220;16.358;2023-06-14T00:30:21;4.40;;;4.00;;
79261;SDS011;68699;48.220;16.358;2023-06-14T00:32:48;4.73;;;3.70;;
79261;SDS011;68699;48.220;16.358;2023-06-14T00:35:14;3.63;;;3.37;;
79261;SDS011;68699;48.220;16.358;2023-06-14T00:37:41;5.80;;;3.87;;
79261;SDS011;68699;48.220;16.358;2023-06-14T00:40:07;4.57;;;4.10;;
79261;SDS011;68699;48.220;16.358;2023-06-14T00:42:33;4.33;;;3.93;;
79261;SDS011;68699;48.220;16.358;2023-06-14T00:45:00;4.93;;;4.20;;
79261;SDS011;68699;48.220;16.358;2023-06-14T00:47:26;4.30;;;3.80;;
79261;SDS011;68699;48.220;16.358;2023-06-14T00:49:55;4.90;;;3.90;;
79261;SDS011;68699;48.220;16.358;2023-06-14T00:52:22;4.00;;;3.60;;
79261;SDS011;68699;48.220;16.358;2023-06-14T00:54:49;4.00;;;3.70;;
79261;SDS011;68699;48.220;16.358;2023-06-14T00:57:15;4.30;;;3.90;;
79261;SDS011;68699;48.220;16.358;2023-06-14T00:59:46;4.50;;;4.20;;
79261;SDS011;68699;48.220;16.358;2023-06-14T01:02:12;4.60;;;4.20;;
79261;SDS011;68699;48.220;16.358;2023-06-14T01:04:43;4.43;;;4.10;;
79261;SDS011;68699;48.220;16.358;2023-06-14T01:07:12;4.80;;;3.60;;
79261;SDS011;68699;48.220;16.358;2023-06-14T01:09:46;4.83;;;4.30;;
79261;SDS011;68699;48.220;16.358;2023-06-14T01:12:15;4.60;;;4.00;;
79261;SDS011;68699;48.220;16.358;2023-06-14T01:14:45;3.97;;;3.67;;
79261;SDS011;68699;48.220;16.358;2023-06-14T01:17:13;4.83;;;3.90;;
79261;SDS011;68699;48.220;16.358;2023-06-14T01:19:45;4.10;;;3.77;;
79261;SDS011;68699;48.220;16.358;2023-06-14T01:22:11;4.83;;;4.13;;
79261;SDS011;68699;48.220;16.358;2023-06-14T01:24:37;4.23;;;3.73;;
79261;SDS011;68699;48.220;16.358;2023-06-14T01:27:04;4.20;;;3.80;;
79261;SDS011;68699;48.220;16.358;2023-06-14T01:29:32;4.17;;;3.70;;
79261;SDS011;68699;48.220;16.358;2023-06-14T01:32:01;4.43;;;4.13;;
79261;SDS011;68699;48.220;16.358;2023-06-14T01:34:27;4.27;;;3.87;;
79261;SDS011;68699;48.220;16.358;2023-06-14T01:36:54;4.90;;;4.40;;
79261;SDS011;68699;48.220;16.358;2023-06-14T01:39:20;4.30;;;3.90;;
79261;SDS011;68699;48.220;16.358;2023-06-14T01:41:47;4.47;;;4.07;;
79261;SDS011;68699;48.220;16.358;2023-06-14T01:44:14;4.73;;;4.03;;
79261;SDS011;68699;48.220;16.358;2023-06-14T01:46:41;4.40;;;4.00;;
79261;SDS011;68699;48.220;16.358;2023-06-14T01:49:08;4.87;;;4.10;;
79261;SDS011;68699;48.220;16.358;2023-06-14T01:51:34;4.67;;;3.87;;
79261;SDS011;68699;48.220;16.358;2023-06-14T01:54:00;4.93;;;3.80;;
79261;SDS011;68699;48.220;16.358;2023-06-14T01:56:26;3.87;;;3.57;;
79261;SDS011;68699;48.220;16.358;2023-06-14T01:58:53;4.20;;;3.90;;
79261;SDS011;68699;48.220;16.358;2023-06-14T02:01:19;3.90;;;3.60;;
79261;SDS011;68699;48.220;16.358;2023-06-14T02:03:46;4.53;;;3.87;;
79261;SDS011;68699;48.220;16.358;2023-06-14T02:06:14;5.50;;;4.20;;
79261;SDS011;68699;48.220;16.358;2023-06-14T02:08:41;4.10;;;3.80;;
79261;SDS011;68699;48.220;16.358;2023-06-14T02:11:08;3.97;;;3.67;;
79261;SDS011;68699;48.220;16.358;2023-06-14T02:13:34;4.23;;;3.80;;
79261;SDS011;68699;48.220;16.358;2023-06-14T02:16:00;4.47;;;4.07;;
79261;SDS011;68699;48.220;16.358;2023-06-14T02:18:26;4.60;;;4.20;;
79261;SDS011;68699;48.220;16.358;2023-06-14T02:20:52;4.67;;;4.27;;
79261;SDS011;68699;48.220;16.358;2023-06-14T02:23:19;4.20;;;3.73;;
79261;SDS011;68699;48.220;16.358;2023-06-14T02:25:45;4.70;;;3.90;;
79261;SDS011;68699;48.220;16.358;2023-06-14T02:28:11;4.07;;;3.67;;
79261;SDS011;68699;48.220;16.358;2023-06-14T02:30:37;4.30;;;3.70;;
79261;SDS011;68699;48.220;16.358;2023-06-14T02:33:04;4.87;;;4.37;;
79261;SDS011;68699;48.220;16.358;2023-06-14T02:35:30;4.30;;;3.87;;
79261;SDS011;68699;48.220;16.358;2023-06-14T02:37:57;4.57;;;4.10;;
79261;SDS011;68699;48.220;16.358;2023-06-14T02:40:23;6.53;;;4.23;;
79261;SDS011;68699;48.220;16.358;2023-06-14T02:42:49;4.47;;;4.07;;
79261;SDS011;68699;48.220;16.358;2023-06-14T02:45:16;4.60;;;3.83;;
79261;SDS011;68699;48.220;16.358;2023-06-14T02:47:42;4.43;;;3.83;;
79261;SDS011;68699;48.220;16.358;2023-06-14T02:50:08;4.00;;;3.70;;
79261;SDS011;68699;48.220;16.358;2023-06-14T02:52:35;4.30;;;3.90;;
79261;SDS011;68699;48.220;16.358;2023-06-14T02:55:01;4.47;;;4.03;;
79261;SDS011;68699;48.220;16.358;2023-06-14T02:57:27;4.50;;;4.10;;
79261;SDS011;68699;48.220;16.358;2023-06-14T02:59:53;4.37;;;3.63;;
79261;SDS011;68699;48.220;16.358;2023-06-14T03:02:20;4.27;;;3.93;;
79261;SDS011;68699;48.220;16.358;2023-06-14T03:04:46;4.87;;;3.53;;
79261;SDS011;68699;48.220;16.358;2023-06-14T03:07:12;4.23;;;3.67;;
79261;SDS011;68699;48.220;16.358;2023-06-14T03:09:39;4.03;;;3.63;;
79261;SDS011;68699;48.220;16.358;2023-06-14T03:12:05;4.37;;;4.00;;
79261;SDS011;68699;48.220;16.358;2023-06-14T03:14:35;4.20;;;3.90;;
79261;SDS011;68699;48.220;16.358;2023-06-14T03:17:01;4.63;;;4.23;;
79261;SDS011;68699;48.220;16.358;2023-06-14T03:19:27;4.37;;;4.03;;
79261;SDS011;68699;48.220;16.358;2023-06-14T03:21:54;4.20;;;3.90;;
79261;SDS011;68699;48.220;16.358;2023-06-14T03:24:22;4.77;;;4.07;;
79261;SDS011;68699;48.220;16.358;2023-06-14T03:26:49;4.33;;;4.03;;
79261;SDS011;68699;48.220;16.358;2023-06-14T03:29:15;4.00;;;3.60;;
79261;SDS011;68699;48.220;16.358;2023-06-14T03:31:56;4.77;;;4.00;;
79261;SDS011;68699;48.220;16.358;2023-06-14T03:34:23;4.00;;;3.70;;
79261;SDS011;68699;48.220;16.358;2023-06-14T03:36:49;4.63;;;3.60;;
79261;SDS011;68699;48.220;16.358;2023-06-14T03:39:15;3.80;;;3.50;;
79261;SDS011;68699;48.220;16.358;2023-06-14T03:41:41;3.80;;;3.50;;
79261;SDS011;68699;48.220;16.358;2023-06-14T03:44:07;4.10;;;3.70;;
79261;SDS011;68699;48.220;16.358;2023-06-14T03:46:34;3.97;;;3.67;;
79261;SDS011;68699;48.220;16.358;2023-06-14T03:49:00;4.77;;;3.93;;
79261;SDS011;68699;48.220;16.358;2023-06-14T03:51:27;4.30;;;3.90;;
79261;SDS011;68699;48.220;16.358;2023-06-14T03:53:54;5.53;;;3.87;;
79261;SDS011;68699;48.220;16.358;2023-06-14T03:56:21;4.73;;;3.90;;
79261;SDS011;68699;48.220;16.358;2023-06-14T03:58:47;4.17;;;3.87;;
79261;SDS011;68699;48.220;16.358;2023-06-14T04:01:13;4.07;;;3.77;;
79261;SDS011;68699;48.220;16.358;2023-06-14T04:03:39;4.40;;;4.00;;
79261;SDS011;68699;48.220;16.358;2023-06-14T04:06:06;4.63;;;4.10;;
79261;SDS011;68699;48.220;16.358;2023-06-14T04:08:32;4.33;;;3.93;;
79261;SDS011;68699;48.220;16.358;2023-06-14T04:11:00;3.93;;;3.53;;
79261;SDS011;68699;48.220;16.358;2023-06-14T04:13:26;4.37;;;3.90;;
79261;SDS011;68699;48.220;16.358;2023-06-14T04:15:52;4.00;;;3.60;;
79261;SDS011;68699;48.220;16.358;2023-06-14T04:18:19;5.70;;;3.97;;
79261;SDS011;68699;48.220;16.358;2023-06-14T04:20:45;6.60;;;4.07;;
79261;SDS011;68699;48.220;16.358;2023-06-14T04:23:15;5.13;;;4.13;;
79261;SDS011;68699;48.220;16.358;2023-06-14T04:25:43;5.70;;;4.20;;
79261;SDS011;68699;48.220;16.358;2023-06-14T04:28:12;4.00;;;3.70;;
79261;SDS011;68699;48.220;16.358;2023-06-14T04:30:42;4.20;;;3.90;;
79261;SDS011;68699;48.220;16.358;2023-06-14T04:33:09;4.17;;;3.70;;
79261;SDS011;68699;48.220;16.358;2023-06-14T04:35:36;5.27;;;3.83;;
79261;SDS011;68699;48.220;16.358;2023-06-14T04:38:04;4.77;;;4.17;;
79261;SDS011;68699;48.220;16.358;2023-06-14T04:40:30;4.60;;;4.20;;
79261;SDS011;68699;48.220;16.358;2023-06-14T04:42:56;4.40;;;4.00;;
79261;SDS011;68699;48.220;16.358;2023-06-14T04:45:23;4.73;;;4.33;;
79261;SDS011;68699;48.220;16.358;2023-06-14T04:47:49;5.37;;;4.20;;
79261;SDS011;68699;48.220;16.358;2023-06-14T04:50:16;4.77;;;4.20;;
79261;SDS011;68699;48.220;16.358;2023-06-14T04:52:43;4.40;;;4.00;;
79261;SDS011;68699;48.220;16.358;2023-06-14T04:55:09;6.60;;;4.23;;
79261;SDS011;68699;48.220;16.358;2023-06-14T04:57:35;4.73;;;4.33;;
79261;SDS011;68699;48.220;16.358;2023-06-14T05:00:03;4.40;;;4.00;;
79261;SDS011;68699;48.220;16.358;2023-06-14T05:02:31;4.30;;;3.83;;
79261;SDS011;68699;48.220;16.358;2023-06-14T05:04:57;4.33;;;3.93;;
79261;SDS011;68699;48.220;16.358;2023-06-14T05:07:24;4.77;;;4.30;;
79261;SDS011;68699;48.220;16.358;2023-06-14T05:09:50;4.77;;;4.27;;
79261;SDS011;68699;48.220;16.358;2023-06-14T05:12:16;4.63;;;4.27;;
79261;SDS011;68699;48.220;16.358;2023-06-14T05:14:46;3.83;;;3.53;;
79261;SDS011;68699;48.220;16.358;2023-06-14T05:17:12;4.07;;;3.70;;
79261;SDS011;68699;48.220;16.358;2023-06-14T05:19:38;5.43;;;3.90;;
79261;SDS011;68699;48.220;16.358;2023-06-14T05:22:06;7.10;;;4.40;;
79261;SDS011;68699;48.220;16.358;2023-06-14T05:24:32;4.63;;;4.00;;
79261;SDS011;68699;48.220;16.358;2023-06-14T05:26:58;5.57;;;4.40;;
79261;SDS011;68699;48.220;16.358;2023-06-14T05:29:24;4.43;;;4.03;;
79261;SDS011;68699;48.220;16.358;2023-06-14T05:31:51;5.53;;;4.40;;
79261;SDS011;68699;48.220;16.358;2023-06-14T05:34:17;4.60;;;4.20;;
79261;SDS011;68699;48.220;16.358;2023-06-14T05:36:43;4.13;;;3.73;;
79261;SDS011;68699;48.220;16.358;2023-06-14T05:39:10;4.30;;;3.90;;
79261;SDS011;68699;48.220;16.358;2023-06-14T05:41:36;4.20;;;3.67;;
79261;SDS011;68699;48.220;16.358;2023-06-14T05:44:02;4.53;;;4.07;;
79261;SDS011;68699;48.220;16.358;2023-06-14T05:46:28;4.13;;;3.83;;
79261;SDS011;68699;48.220;16.358;2023-06-14T05:48:55;6.87;;;4.07;;
79261;SDS011;68699;48.220;16.358;2023-06-14T05:51:21;4.50;;;3.80;;
79261;SDS011;68699;48.220;16.358;2023-06-14T05:53:50;5.30;;;3.80;;
79261;SDS011;68699;48.220;16.358;2023-06-14T05:56:16;4.63;;;3.63;;
79261;SDS011;68699;48.220;16.358;2023-06-14T05:58:43;4.57;;;3.87;;
79261;SDS011;68699;48.220;16.358;2023-06-14T06:01:09;5.17;;;4.00;;
79261;SDS011;68699;48.220;16.358;2023-06-14T06:03:36;4.40;;;4.00;;
79261;SDS011;68699;48.220;16.358;2023-06-14T06:06:02;3.83;;;3.43;;
79261;SDS011;68699;48.220;16.358;2023-06-14T06:08:28;3.73;;;3.43;;
79261;SDS011;68699;48.220;16.358;2023-06-14T06:10:55;5.83;;;3.70;;
79261;SDS011;68699;48.220;16.358;2023-06-14T06:13:22;5.13;;;3.83;;
79261;SDS011;68699;48.220;16.358;2023-06-14T06:15:48;6.20;;;3.60;;
79261;SDS011;68699;48.220;16.358;2023-06-14T06:18:14;3.97;;;3.60;;
79261;SDS011;68699;48.220;16.358;2023-06-14T06:20:40;4.50;;;3.40;;
79261;SDS011;68699;48.220;16.358;2023-06-14T06:23:07;4.10;;;3.73;;
79261;SDS011;68699;48.220;16.358;2023-06-14T06:25:34;3.80;;;3.50;;
79261;SDS011;68699;48.220;16.358;2023-06-14T06:28:01;8.83;;;3.80;;
79261;SDS011;68699;48.220;16.358;2023-06-14T06:30:27;5.77;;;4.03;;
79261;SDS011;68699;48.220;16.358;2023-06-14T06:32:53;4.87;;;3.80;;
79261;SDS011;68699;48.220;16.358;2023-06-14T06:35:20;4.07;;;3.60;;
79261;SDS011;68699;48.220;16.358;2023-06-14T06:37:46;3.83;;;3.23;;
79261;SDS011;68699;48.220;16.358;2023-06-14T06:40:13;4.27;;;3.13;;
79261;SDS011;68699;48.220;16.358;2023-06-14T06:42:39;4.73;;;3.40;;
79261;SDS011;68699;48.220;16.358;2023-06-14T06:45:05;3.20;;;2.90;;
79261;SDS011;68699;48.220;16.358;2023-06-14T06:47:31;4.93;;;3.17;;
79261;SDS011;68699;48.220;16.358;2023-06-14T06:49:57;5.27;;;3.47;;
79261;SDS011;68699;48.220;16.358;2023-06-14T06:52:24;3.73;;;3.20;;
79261;SDS011;68699;48.220;16.358;2023-06-14T06:54:50;3.47;;;3.17;;
79261;SDS011;68699;48.220;16.358;2023-06-14T06:57:20;4.23;;;3.30;;
79261;SDS011;68699;48.220;16.358;2023-06-14T06:59:48;4.23;;;3.27;;
79261;SDS011;68699;48.220;16.358;2023-06-14T07:02:14;4.23;;;3.33;;
79261;SDS011;68699;48.220;16.358;2023-06-14T07:04:40;4.50;;;3.07;;
79261;SDS011;68699;48.220;16.358;2023-06-14T07:07:06;4.80;;;3.40;;
79261;SDS011;68699;48.220;16.358;2023-06-14T07:09:34;4.77;;;3.10;;
79261;SDS011;68699;48.220;16.358;2023-06-14T07:12:01;4.10;;;3.60;;
79261;SDS011;68699;48.220;16.358;2023-06-14T07:14:27;5.83;;;3.43;;
79261;SDS011;68699;48.220;16.358;2023-06-14T07:16:53;3.80;;;3.50;;
79261;SDS011;68699;48.220;16.358;2023-06-14T07:19:19;4.33;;;3.20;;
79261;SDS011;68699;48.220;16.358;2023-06-14T07:21:46;3.70;;;3.40;;
79261;SDS011;68699;48.220;16.358;2023-06-14T07:24:12;4.50;;;3.40;;
79261;SDS011;68699;48.220;16.358;2023-06-14T07:26:38;3.20;;;2.90;;
79261;SDS011;68699;48.220;16.358;2023-06-14T07:29:04;4.83;;;2.90;;
79261;SDS011;68699;48.220;16.358;2023-06-14T07:31:30;4.50;;;3.00;;
79261;SDS011;68699;48.220;16.358;2023-06-14T07:33:56;4.13;;;3.10;;
79261;SDS011;68699;48.220;16.358;2023-06-14T07:36:23;4.70;;;3.00;;
79261;SDS011;68699;48.220;16.358;2023-06-14T07:38:49;3.43;;;3.20;;
79261;SDS011;68699;48.220;16.358;2023-06-14T07:41:15;4.37;;;3.27;;
79261;SDS011;68699;48.220;16.358;2023-06-14T07:43:41;4.97;;;3.30;;
79261;SDS011;68699;48.220;16.358;2023-06-14T07:46:08;5.73;;;3.03;;
79261;SDS011;68699;48.220;16.358;2023-06-14T07:48:34;3.80;;;3.40;;
79261;SDS011;68699;48.220;16.358;2023-06-14T07:51:00;3.80;;;3.47;;
79261;SDS011;68699;48.220;16.358;2023-06-14T07:53:26;3.10;;;2.90;;
79261;SDS011;68699;48.220;16.358;2023-06-14T07:55:52;3.53;;;3.10;;
79261;SDS011;68699;48.220;16.358;2023-06-14T07:58:19;3.37;;;3.07;;
79261;SDS011;68699;48.220;16.358;2023-06-14T08:00:45;3.43;;;3.00;;
79261;SDS011;68699;48.220;16.358;2023-06-14T08:03:12;3.00;;;2.80;;
79261;SDS011;68699;48.220;16.358;2023-06-14T08:05:39;3.30;;;3.00;;
79261;SDS011;68699;48.220;16.358;2023-06-14T08:08:05;3.60;;;3.10;;
79261;SDS011;68699;48.220;16.358;2023-06-14T08:10:31;3.47;;;3.17;;
79261;SDS011;68699;48.220;16.358;2023-06-14T08:12:57;5.37;;;3.40;;
79261;SDS011;68699;48.220;16.358;2023-06-14T08:15:24;3.70;;;3.40;;
79261;SDS011;68699;48.220;16.358;2023-06-14T08:17:50;4.97;;;3.23;;
79261;SDS011;68699;48.220;16.358;2023-06-14T08:20:16;5.83;;;3.23;;
79261;SDS011;68699;48.220;16.358;2023-06-14T08:22:42;3.30;;;3.00;;
79261;SDS011;68699;48.220;16.358;2023-06-14T08:25:11;3.80;;;3.30;;
79261;SDS011;68699;48.220;16.358;2023-06-14T08:27:37;3.60;;;2.83;;
79261;SDS011;68699;48.220;16.358;2023-06-14T08:30:04;3.20;;;2.90;;
79261;SDS011;68699;48.220;16.358;2023-06-14T08:32:30;5.03;;;3.20;;
79261;SDS011;68699;48.220;16.358;2023-06-14T08:34:56;3.30;;;3.00;;
79261;SDS011;68699;48.220;16.358;2023-06-14T08:37:22;3.53;;;3.23;;
79261;SDS011;68699;48.220;16.358;2023-06-14T08:39:48;4.00;;;2.97;;
79261;SDS011;68699;48.220;16.358;2023-06-14T08:42:15;3.60;;;3.00;;
79261;SDS011;68699;48.220;16.358;2023-06-14T08:44:41;3.43;;;2.97;;
79261;SDS011;68699;48.220;16.358;2023-06-14T08:47:07;3.10;;;2.90;;
79261;SDS011;68699;48.220;16.358;2023-06-14T08:49:36;3.20;;;2.97;;
79261;SDS011;68699;48.220;16.358;2023-06-14T08:52:03;3.13;;;2.70;;
79261;SDS011;68699;48.220;16.358;2023-06-14T08:54:32;3.97;;;3.30;;
79261;SDS011;68699;48.220;16.358;2023-06-14T08:57:01;3.20;;;2.90;;
79261;SDS011;68699;48.220;16.358;2023-06-14T08:59:29;3.40;;;3.07;;
79261;SDS011;68699;48.220;16.358;2023-06-14T09:01:59;4.30;;;3.47;;
79261;SDS011;68699;48.220;16.358;2023-06-14T09:04:25;5.03;;;4.27;;
79261;SDS011;68699;48.220;16.358;2023-06-14T09:06:54;3.63;;;3.00;;
79261;SDS011;68699;48.220;16.358;2023-06-14T09:09:21;4.00;;;3.33;;
79261;SDS011;68699;48.220;16.358;2023-06-14T09:11:54;3.50;;;2.97;;
79261;SDS011;68699;48.220;16.358;2023-06-14T09:14:23;4.07;;;3.33;;
79261;SDS011;68699;48.220;16.358;2023-06-14T09:16:53;5.10;;;3.20;;
79261;SDS011;68699;48.220;16.358;2023-06-14T09:19:23;3.70;;;3.40;;
79261;SDS011;68699;48.220;16.358;2023-06-14T09:21:50;4.13;;;3.47;;
79261;SDS011;68699;48.220;16.358;2023-06-14T09:24:18;4.47;;;3.57;;
79261;SDS011;68699;48.220;16.358;2023-06-14T09:26:48;6.17;;;3.30;;
79261;SDS011;68699;48.220;16.358;2023-06-14T09:29:16;3.97;;;3.10;;
79261;SDS011;68699;48.220;16.358;2023-06-14T09:31:43;3.40;;;2.97;;
79261;SDS011;68699;48.220;16.358;2023-06-14T09:34:11;3.57;;;3.30;;
79261;SDS011;68699;48.220;16.358;2023-06-14T09:36:37;4.07;;;3.40;;
79261;SDS011;68699;48.220;16.358;2023-06-14T09:39:07;4.00;;;3.70;;
79261;SDS011;68699;48.220;16.358;2023-06-14T09:41:37;4.07;;;3.60;;
79261;SDS011;68699;48.220;16.358;2023-06-14T09:44:05;4.37;;;3.37;;
79261;SDS011;68699;48.220;16.358;2023-06-14T09:46:32;4.87;;;3.20;;
79261;SDS011;68699;48.220;16.358;2023-06-14T09:48:58;3.50;;;3.20;;
79261;SDS011;68699;48.220;16.358;2023-06-14T09:51:25;3.60;;;3.23;;
79261;SDS011;68699;48.220;16.358;2023-06-14T09:53:52;5.20;;;3.30;;
79261;SDS011;68699;48.220;16.358;2023-06-14T09:56:28;3.40;;;3.00;;
79261;SDS011;68699;48.220;16.358;2023-06-14T09:58:57;4.40;;;2.60;;
79261;SDS011;68699;48.220;16.358;2023-06-14T10:01:24;3.30;;;3.00;;
79261;SDS011;68699;48.220;16.358;2023-06-14T10:03:54;3.80;;;3.10;;
79261;SDS011;68699;48.220;16.358;2023-06-14T10:06:22;2.80;;;2.60;;
79261;SDS011;68699;48.220;16.358;2023-06-14T10:08:50;3.73;;;3.23;;
79261;SDS011;68699;48.220;16.358;2023-06-14T10:11:17;4.83;;;3.17;;
79261;SDS011;68699;48.220;16.358;2023-06-14T10:13:43;3.23;;;2.93;;
79261;SDS011;68699;48.220;16.358;2023-06-14T10:18:53;4.47;;;3.23;;
79261;SDS011;68699;48.220;16.358;2023-06-14T10:21:32;3.07;;;2.77;;
79261;SDS011;68699;48.220;16.358;2023-06-14T10:24:01;3.57;;;3.27;;
79261;SDS011;68699;48.220;16.358;2023-06-14T10:26:29;4.10;;;3.03;;
79261;SDS011;68699;48.220;16.358;2023-06-14T10:29:07;4.30;;;3.30;;
79261;SDS011;68699;48.220;16.358;2023-06-14T10:31:41;4.13;;;3.20;;
79261;SDS011;68699;48.220;16.358;2023-06-14T10:34:07;3.30;;;3.00;;
79261;SDS011;68699;48.220;16.358;2023-06-14T10:36:33;5.20;;;3.30;;
79261;SDS011;68699;48.220;16.358;2023-06-14T10:41:27;3.87;;;3.37;;
79261;SDS011;68699;48.220;16.358;2023-06-14T10:46:55;3.20;;;2.90;;
79261;SDS011;68699;48.220;16.358;2023-06-14T10:49:55;3.67;;;3.30;;
79261;SDS011;68699;48.220;16.358;2023-06-14T10:52:16;3.73;;;3.43;;
79261;SDS011;68699;48.220;16.358;2023-06-14T10:54:59;3.23;;;3.03;;
79261;SDS011;68699;48.220;16.358;2023-06-14T10:57:26;4.43;;;3.20;;
79261;SDS011;68699;48.220;16.358;2023-06-14T10:59:53;4.07;;;3.53;;
79261;SDS011;68699;48.220;16.358;2023-06-14T11:02:27;3.73;;;3.13;;
79261;SDS011;68699;48.220;16.358;2023-06-14T11:05:05;3.27;;;2.93;;
79261;SDS011;68699;48.220;16.358;2023-06-14T11:10:39;2.97;;;2.73;;
79261;SDS011;68699;48.220;16.358;2023-06-14T11:13:06;4.57;;;3.20;;
79261;SDS011;68699;48.220;16.358;2023-06-14T11:15:33;3.20;;;2.90;;
79261;SDS011;68699;48.220;16.358;2023-06-14T11:18:02;3.13;;;2.70;;
79261;SDS011;68699;48.220;16.358;2023-06-14T11:20:30;3.87;;;3.10;;
79261;SDS011;68699;48.220;16.358;2023-06-14T11:22:56;3.77;;;2.60;;
79261;SDS011;68699;48.220;16.358;2023-06-14T11:25:23;4.83;;;2.83;;
79261;SDS011;68699;48.220;16.358;2023-06-14T11:27:49;3.10;;;2.90;;
79261;SDS011;68699;48.220;16.358;2023-06-14T11:30:16;5.70;;;3.27;;
79261;SDS011;68699;48.220;16.358;2023-06-14T11:32:45;2.97;;;2.77;;
79261;SDS011;68699;48.220;16.358;2023-06-14T11:35:12;3.23;;;2.93;;
79261;SDS011;68699;48.220;16.358;2023-06-14T11:37:39;5.87;;;3.20;;
79261;SDS011;68699;48.220;16.358;2023-06-14T11:40:07;2.90;;;2.70;;
79261;SDS011;68699;48.220;16.358;2023-06-14T11:42:35;3.30;;;3.00;;
79261;SDS011;68699;48.220;16.358;2023-06-14T11:45:02;3.27;;;2.90;;
79261;SDS011;68699;48.220;16.358;2023-06-14T11:47:33;3.93;;;2.90;;
79261;SDS011;68699;48.220;16.358;2023-06-14T11:49:59;3.07;;;2.77;;
79261;SDS011;68699;48.220;16.358;2023-06-14T11:52:26;2.90;;;2.70;;
79261;SDS011;68699;48.220;16.358;2023-06-14T11:54:52;5.13;;;3.00;;
79261;SDS011;68699;48.220;16.358;2023-06-14T11:57:19;3.03;;;2.77;;
79261;SDS011;68699;48.220;16.358;2023-06-14T11:59:46;3.20;;;2.90;;
79261;SDS011;68699;48.220;16.358;2023-06-14T12:02:16;4.30;;;2.63;;
79261;SDS011;68699;48.220;16.358;2023-06-14T12:04:51;4.80;;;3.10;;
79261;SDS011;68699;48.220;16.358;2023-06-14T12:07:18;5.73;;;2.97;;
79261;SDS011;68699;48.220;16.358;2023-06-14T12:12:23;3.43;;;3.13;;
79261;SDS011;68699;48.220;16.358;2023-06-14T12:14:55;7.70;;;3.40;;
79261;SDS011;68699;48.220;16.358;2023-06-14T12:17:21;3.27;;;2.80;;
79261;SDS011;68699;48.220;16.358;2023-06-14T12:19:48;3.10;;;2.87;;
79261;SDS011;68699;48.220;16.358;2023-06-14T12:22:15;4.27;;;3.13;;
79261;SDS011;68699;48.220;16.358;2023-06-14T12:24:44;4.80;;;3.60;;
79261;SDS011;68699;48.220;16.358;2023-06-14T12:27:11;4.97;;;3.10;;
79261;SDS011;68699;48.220;16.358;2023-06-14T12:29:40;4.93;;;2.87;;
79261;SDS011;68699;48.220;16.358;2023-06-14T12:32:08;3.20;;;2.90;;
79261;SDS011;68699;48.220;16.358;2023-06-14T12:34:35;7.30;;;3.03;;
79261;SDS011;68699;48.220;16.358;2023-06-14T12:37:01;3.00;;;2.80;;
79261;SDS011;68699;48.220;16.358;2023-06-14T12:39:29;3.67;;;3.03;;
79261;SDS011;68699;48.220;16.358;2023-06-14T12:41:56;4.13;;;3.10;;
79261;SDS011;68699;48.220;16.358;2023-06-14T12:44:23;4.37;;;3.40;;
79261;SDS011;68699;48.220;16.358;2023-06-14T12:46:49;3.43;;;3.13;;
79261;SDS011;68699;48.220;16.358;2023-06-14T12:49:18;5.80;;;3.20;;
79261;SDS011;68699;48.220;16.358;2023-06-14T12:51:47;4.87;;;3.47;;
79261;SDS011;68699;48.220;16.358;2023-06-14T12:54:13;3.63;;;3.00;;
79261;SDS011;68699;48.220;16.358;2023-06-14T12:56:40;4.03;;;3.20;;
79261;SDS011;68699;48.220;16.358;2023-06-14T12:59:07;4.30;;;3.00;;
79261;SDS011;68699;48.220;16.358;2023-06-14T13:01:34;4.40;;;3.00;;
79261;SDS011;68699;48.220;16.358;2023-06-14T13:04:00;4.00;;;2.73;;
79261;SDS011;68699;48.220;16.358;2023-06-14T13:06:26;4.20;;;3.03;;
79261;SDS011;68699;48.220;16.358;2023-06-14T13:08:55;4.53;;;3.20;;
79261;SDS011;68699;48.220;16.358;2023-06-14T13:11:22;3.27;;;2.90;;
79261;SDS011;68699;48.220;16.358;2023-06-14T13:13:48;3.10;;;2.90;;
79261;SDS011;68699;48.220;16.358;2023-06-14T13:16:15;4.00;;;3.07;;
79261;SDS011;68699;48.220;16.358;2023-06-14T13:18:41;3.50;;;3.00;;
79261;SDS011;68699;48.220;16.358;2023-06-14T13:21:07;8.17;;;2.83;;
79261;SDS011;68699;48.220;16.358;2023-06-14T13:23:33;3.47;;;3.00;;
79261;SDS011;68699;48.220;16.358;2023-06-14T13:25:59;4.70;;;3.30;;
79261;SDS011;68699;48.220;16.358;2023-06-14T13:28:25;3.57;;;2.90;;
79261;SDS011;68699;48.220;16.358;2023-06-14T13:30:52;4.50;;;3.10;;
79261;SDS011;68699;48.220;16.358;2023-06-14T13:33:18;4.60;;;3.23;;
79261;SDS011;68699;48.220;16.358;2023-06-14T13:35:44;4.17;;;3.07;;
79261;SDS011;68699;48.220;16.358;2023-06-14T13:38:10;4.83;;;3.23;;
79261;SDS011;68699;48.220;16.358;2023-06-14T13:40:36;4.77;;;2.87;;
79261;SDS011;68699;48.220;16.358;2023-06-14T13:43:02;4.07;;;2.87;;
79261;SDS011;68699;48.220;16.358;2023-06-14T13:45:29;3.10;;;2.90;;
79261;SDS011;68699;48.220;16.358;2023-06-14T13:47:57;5.20;;;2.97;;
79261;SDS011;68699;48.220;16.358;2023-06-14T13:50:23;3.13;;;2.90;;
79261;SDS011;68699;48.220;16.358;2023-06-14T13:52:49;4.20;;;2.97;;
79261;SDS011;68699;48.220;16.358;2023-06-14T13:55:15;4.13;;;3.17;;
79261;SDS011;68699;48.220;16.358;2023-06-14T13:57:41;3.27;;;2.97;;
79261;SDS011;68699;48.220;16.358;2023-06-14T14:00:08;5.50;;;3.03;;
79261;SDS011;68699;48.220;16.358;2023-06-14T14:02:35;4.43;;;2.97;;
79261;SDS011;68699;48.220;16.358;2023-06-14T14:05:01;3.00;;;2.80;;
79261;SDS011;68699;48.220;16.358;2023-06-14T14:07:27;3.60;;;3.20;;
79261;SDS011;68699;48.220;16.358;2023-06-14T14:09:54;3.27;;;3.00;;
79261;SDS011;68699;48.220;16.358;2023-06-14T14:12:22;4.23;;;3.07;;
79261;SDS011;68699;48.220;16.358;2023-06-14T14:14:49;3.57;;;3.27;;
79261;SDS011;68699;48.220;16.358;2023-06-14T14:17:15;4.67;;;3.10;;
79261;SDS011;68699;48.220;16.358;2023-06-14T14:19:41;3.20;;;2.87;;
79261;SDS011;68699;48.220;16.358;2023-06-14T14:22:08;3.63;;;3.33;;
79261;SDS011;68699;48.220;16.358;2023-06-14T14:24:34;3.67;;;3.10;;
79261;SDS011;68699;48.220;16.358;2023-06-14T14:27:00;3.83;;;3.43;;
79261;SDS011;68699;48.220;16.358;2023-06-14T14:29:26;3.70;;;3.30;;
79261;SDS011;68699;48.220;16.358;2023-06-14T14:31:55;6.83;;;3.40;;
79261;SDS011;68699;48.220;16.358;2023-06-14T14:34:22;4.53;;;2.70;;
79261;SDS011;68699;48.220;16.358;2023-06-14T14:36:48;4.30;;;3.10;;
79261;SDS011;68699;48.220;16.358;2023-06-14T14:39:14;3.30;;;3.00;;
79261;SDS011;68699;48.220;16.358;2023-06-14T14:41:40;3.37;;;3.07;;
79261;SDS011;68699;48.220;16.358;2023-06-14T14:44:07;4.47;;;2.87;;
79261;SDS011;68699;48.220;16.358;2023-06-14T14:46:33;3.97;;;3.10;;